Pattaya, Thailand

8:21 PM ICT on October 30, 2014 (GMT +0700)
Pratamnak Hill | Change Station
CLOSE
Current Station
Personal Weather Station
Location: Pattaya, CHON BURI
Elevation: 0 ft
Nearby Weather Stations

Elev 0 ft 12.92 °N, 100.86 °E | Updated 9 seconds ago

Mostly Cloudy
Mostly Cloudy
82.0 °F
Feels Like 90 °F
N
0.0
Wind Variable Wind from SW
Gusts 0.0 mph

Today
High -- | Low -- °F
--% Chance of Precip.
Yesterday
High -- | Low -- °F
Precip. -- in
6:09 AM 5:50 PM
Waxing Crescent, 44% visible
Pressure 29.83 in
Visibility 5.0 miles
Clouds Few 2000 ft
Mostly Cloudy 30000 ft
Heat Index 90 °F
Dew Point 77 °F
Humidity 86%
Rainfall 0.00 in
Snow Depth Not available.
UV 0 out of 12
Pollen Not available.
Air Quality Not available.
Flu Activity Not available.
METAR VTBU 301300Z 03002KT 8000 FEW020 BKN300 27/25 Q1010 A2983

More Conditions Fewer Conditions

Pressure 29.83 in
Visibility 5.0 miles
Clouds Few 2000 ft
Mostly Cloudy 30000 ft
Heat Index 90 °F
Dew Point 77 °F
Humidity 86%
Rainfall 0.00 in
Snow Depth Not available.
UV 0 out of 12
Pollen Not available.
Air Quality Not available.
Flu Activity Not available.
METAR VTBU 301300Z 03002KT 8000 FEW020 BKN300 27/25 Q1010 A2983

More Conditions Fewer Conditions

10-Day Weather Forecast

Almanac

Astronomy

Oct. 30, 2014 Rise Set
Actual Time
Civil Twilight
Nautical Twilight
Astronomical Twilight
Moon
Length of Visible Light
Length of Day
Tomorrow will be .
, % of the Moon is Illuminated

Today's Extremes

Country Highs Country Lows

Community

WunderPhotos

Upload Photos

1,766,358 photos uploaded!

WunderBlogs® & News

Nearby

Air Quality

  Air Quality AQ Index Pollutant
Not available.

Snow Depth

Station Depth Elevation

Earthquake Activity

City Distance Mag. Time & Date
Minimum magnitude displayed is 2.5.

Coastal Water Temperatures

Place Temperature

Nearby Weather Stations